Time;durP1;ratioP1;P1;durP2;ratioP2;P2;SDS_P1;SDS_P2;PMS_P1;PMS_P2;Temp;Humidity;BMP_temperature;BMP_pressure;BME280_temperature;BME280_humidity;BME280_pressure;Samples;Min_cycle;Max_cycle;Signal;HPM_P1;HPM_P2
2022/06/09 00:02:01;;;;;;;5.97;2.53;;;;;;;;;;4946224;28;89318;-69
2022/06/09 00:04:31;;;;;;;3.57;2.00;;;;;;;;;;4945143;28;88810;-69
2022/06/09 00:07:00;;;;;;;5.37;2.10;;;;;;;;;;4940286;28;88504;-69
2022/06/09 00:09:31;;;;;;;4.53;2.33;;;;;;;;;;4941169;28;89518;-69
2022/06/09 00:12:01;;;;;;;2.77;1.67;;;;;;;;;;4939378;28;89000;-69
2022/06/09 00:14:29;;;;;;;3.20;2.20;;;;;;;;;;4939741;28;89707;-69
2022/06/09 00:16:57;;;;;;;7.90;2.30;;;;;;;;;;4939374;28;88345;-68
2022/06/09 00:19:28;;;;;;;1.83;1.73;;;;;;;;;;4940049;28;88291;-69
2022/06/09 00:21:57;;;;;;;5.77;1.97;;;;;;;;;;4940353;28;88476;-69
2022/06/09 00:24:25;;;;;;;2.03;1.50;;;;;;;;;;4938552;28;92174;-68
2022/06/09 00:26:53;;;;;;;3.40;1.80;;;;;;;;;;4939385;28;90481;-69
2022/06/09 00:29:23;;;;;;;3.27;1.90;;;;;;;;;;4939864;28;88610;-70
2022/06/09 00:31:52;;;;;;;4.50;2.03;;;;;;;;;;4939168;28;89885;-69
2022/06/09 00:34:20;;;;;;;2.50;1.53;;;;;;;;;;4939299;28;90585;-70
2022/06/09 00:36:48;;;;;;;5.40;1.50;;;;;;;;;;4939952;28;89225;-68
2022/06/09 00:39:17;;;;;;;2.37;1.40;;;;;;;;;;4939852;28;88503;-69
2022/06/09 00:41:45;;;;;;;2.10;1.30;;;;;;;;;;4940036;28;90164;-68
2022/06/09 00:44:17;;;;;;;1.53;1.43;;;;;;;;;;4938798;28;91392;-69
2022/06/09 00:46:47;;;;;;;2.47;1.33;;;;;;;;;;4939569;28;88404;-68
2022/06/09 00:49:17;;;;;;;1.97;1.27;;;;;;;;;;4939165;28;88549;-69
2022/06/09 00:51:46;;;;;;;1.80;1.37;;;;;;;;;;4938238;28;89516;-68
2022/06/09 00:54:15;;;;;;;2.10;1.43;;;;;;;;;;4942034;28;92221;-68
2022/06/09 00:56:44;;;;;;;2.43;1.07;;;;;;;;;;4942205;28;88354;-69
2022/06/09 00:59:13;;;;;;;2.30;1.57;;;;;;;;;;4942759;28;88674;-67
2022/06/09 01:01:41;;;;;;;3.13;1.30;;;;;;;;;;4942818;28;90115;-67
2022/06/09 01:04:12;;;;;;;4.33;1.33;;;;;;;;;;4941432;28;89168;-68
2022/06/09 01:06:41;;;;;;;1.73;1.33;;;;;;;;;;4939480;28;89979;-68
2022/06/09 01:09:11;;;;;;;2.90;1.10;;;;;;;;;;4943013;28;88534;-68
2022/06/09 01:11:39;;;;;;;0.93;0.90;;;;;;;;;;4941843;28;89697;-69
2022/06/09 01:14:08;;;;;;;3.37;1.47;;;;;;;;;;4942776;28;89353;-70
2022/06/09 01:16:39;;;;;;;3.83;1.43;;;;;;;;;;4942414;28;91693;-69
2022/06/09 01:19:13;;;;;;;1.80;1.33;;;;;;;;;;4943846;28;88695;-67
2022/06/09 01:21:50;;;;;;;6.30;1.10;;;;;;;;;;4942058;28;91559;-68
2022/06/09 01:24:27;;;;;;;0.80;0.80;;;;;;;;;;4942181;28;89206;-67
2022/06/09 01:27:12;;;;;;;3.80;1.40;;;;;;;;;;4942854;28;88632;-68
2022/06/09 01:29:44;;;;;;;2.60;0.93;;;;;;;;;;4942518;28;88629;-69
2022/06/09 01:32:15;;;;;;;1.80;1.03;;;;;;;;;;4941957;28;92860;-68
2022/06/09 01:34:44;;;;;;;4.20;0.93;;;;;;;;;;4942485;28;90385;-67
2022/06/09 01:37:13;;;;;;;2.70;1.10;;;;;;;;;;4942411;28;91489;-68
2022/06/09 01:39:46;;;;;;;1.77;1.20;;;;;;;;;;4941965;28;88549;-68
2022/06/09 01:42:21;;;;;;;1.27;1.00;;;;;;;;;;4942491;28;89723;-68
2022/06/09 01:44:49;;;;;;;2.17;1.13;;;;;;;;;;4940648;28;91768;-68
2022/06/09 01:47:20;;;;;;;1.00;0.90;;;;;;;;;;4942532;28;88469;-68
2022/06/09 01:49:48;;;;;;;1.57;0.90;;;;;;;;;;4937194;28;88486;-67
2022/06/09 01:52:17;;;;;;;3.13;1.03;;;;;;;;;;4942123;28;90286;-69
2022/06/09 01:54:45;;;;;;;0.97;0.90;;;;;;;;;;4942937;28;88741;-68
2022/06/09 01:57:14;;;;;;;1.33;1.13;;;;;;;;;;4941738;28;88514;-68
2022/06/09 01:59:44;;;;;;;1.67;0.77;;;;;;;;;;4942093;28;89619;-67
2022/06/09 02:02:13;;;;;;;2.50;1.10;;;;;;;;;;4941424;28;89623;-68
2022/06/09 02:04:44;;;;;;;2.30;1.20;;;;;;;;;;4941461;28;88840;-68
2022/06/09 02:07:12;;;;;;;3.00;1.00;;;;;;;;;;4941347;28;89038;-68
2022/06/09 02:09:41;;;;;;;0.80;0.80;;;;;;;;;;4941928;28;88536;-68
2022/06/09 02:12:10;;;;;;;1.20;1.07;;;;;;;;;;4942114;28;93679;-67
2022/06/09 02:14:43;;;;;;;1.80;0.73;;;;;;;;;;4942648;28;89407;-68
2022/06/09 02:17:11;;;;;;;0.93;0.83;;;;;;;;;;4941733;28;88543;-68
2022/06/09 02:19:40;;;;;;;2.30;0.80;;;;;;;;;;4941735;28;88499;-68
2022/06/09 02:22:11;;;;;;;1.63;0.90;;;;;;;;;;4941732;28;94265;-68
2022/06/09 02:24:39;;;;;;;0.70;0.70;;;;;;;;;;4941887;28;88390;-68
2022/06/09 02:27:07;;;;;;;1.40;1.10;;;;;;;;;;4941519;28;90972;-68
2022/06/09 02:29:36;;;;;;;2.00;0.87;;;;;;;;;;4941224;28;88736;-68
2022/06/09 02:32:04;;;;;;;0.50;0.50;;;;;;;;;;4941286;28;90576;-68
2022/06/09 02:34:33;;;;;;;3.40;1.00;;;;;;;;;;4940900;28;91258;-67
2022/06/09 02:37:01;;;;;;;2.17;0.63;;;;;;;;;;4940470;28;88503;-68
2022/06/09 02:39:31;;;;;;;0.60;0.50;;;;;;;;;;4941525;28;88615;-68
2022/06/09 02:41:59;;;;;;;0.73;0.67;;;;;;;;;;4941467;28;92921;-68
2022/06/09 02:44:28;;;;;;;2.17;0.93;;;;;;;;;;4940318;28;89064;-68
2022/06/09 02:46:56;;;;;;;0.83;0.83;;;;;;;;;;4941341;28;88832;-69
2022/06/09 02:49:26;;;;;;;1.43;0.90;;;;;;;;;;4941503;28;88750;-68
2022/06/09 02:51:54;;;;;;;0.63;0.63;;;;;;;;;;4941045;28;93085;-68
2022/06/09 02:54:22;;;;;;;0.97;0.73;;;;;;;;;;4940939;28;92076;-68
2022/06/09 02:56:52;;;;;;;1.33;0.40;;;;;;;;;;4940991;28;88878;-69
2022/06/09 02:59:20;;;;;;;2.73;0.70;;;;;;;;;;4941322;28;88368;-68
2022/06/09 03:01:49;;;;;;;1.40;0.90;;;;;;;;;;4940550;28;88567;-68
2022/06/09 03:04:17;;;;;;;2.77;1.50;;;;;;;;;;4941143;28;90666;-68
2022/06/09 03:06:46;;;;;;;1.63;0.70;;;;;;;;;;4943732;28;88477;-68
2022/06/09 03:09:14;;;;;;;1.90;0.87;;;;;;;;;;4954544;28;89204;-69
2022/06/09 03:11:43;;;;;;;1.83;1.13;;;;;;;;;;4946323;28;90705;-68
2022/06/09 03:14:13;;;;;;;2.90;1.93;;;;;;;;;;4938981;28;89352;-69
2022/06/09 03:16:41;;;;;;;2.20;1.37;;;;;;;;;;4939247;28;89292;-69
2022/06/09 03:19:09;;;;;;;2.63;1.77;;;;;;;;;;4940097;28;88620;-68
2022/06/09 03:21:38;;;;;;;2.57;1.30;;;;;;;;;;4940433;28;89477;-68
2022/06/09 03:24:07;;;;;;;2.80;2.07;;;;;;;;;;4940524;28;88735;-70
2022/06/09 03:26:36;;;;;;;5.97;2.33;;;;;;;;;;4940299;28;88465;-69
2022/06/09 03:29:04;;;;;;;4.70;2.47;;;;;;;;;;4940540;28;88522;-69
2022/06/09 03:31:34;;;;;;;3.10;1.83;;;;;;;;;;4940157;28;89573;-68
2022/06/09 03:34:03;;;;;;;2.97;1.90;;;;;;;;;;4941127;28;90848;-68
2022/06/09 03:36:31;;;;;;;3.20;2.40;;;;;;;;;;4940821;28;88948;-69
2022/06/09 03:39:01;;;;;;;4.03;2.50;;;;;;;;;;4940826;28;88603;-68
2022/06/09 03:41:29;;;;;;;6.07;3.50;;;;;;;;;;4939485;28;92555;-68
2022/06/09 03:44:03;;;;;;;5.20;2.30;;;;;;;;;;4940150;28;88629;-69
2022/06/09 03:46:33;;;;;;;4.47;2.77;;;;;;;;;;4940632;28;89062;-69
2022/06/09 03:49:02;;;;;;;4.07;2.87;;;;;;;;;;4939420;28;88617;-68
2022/06/09 03:51:30;;;;;;;9.00;3.13;;;;;;;;;;4940099;28;89727;-69
2022/06/09 03:53:59;;;;;;;5.70;3.03;;;;;;;;;;4940913;28;88452;-69
2022/06/09 03:56:27;;;;;;;5.60;2.90;;;;;;;;;;4940025;28;88354;-68
2022/06/09 03:58:56;;;;;;;7.83;3.40;;;;;;;;;;4940401;28;88698;-68
2022/06/09 04:01:24;;;;;;;5.60;3.40;;;;;;;;;;4959565;28;90165;-67
2022/06/09 04:03:55;;;;;;;5.63;3.60;;;;;;;;;;4959569;28;89971;-68
2022/06/09 04:06:24;;;;;;;4.73;2.70;;;;;;;;;;4959503;28;88347;-68
2022/06/09 04:08:52;;;;;;;6.30;3.63;;;;;;;;;;4942759;28;88496;-69
2022/06/09 04:11:21;;;;;;;6.93;3.30;;;;;;;;;;4939996;28;89859;-68
2022/06/09 04:13:50;;;;;;;4.63;3.00;;;;;;;;;;4939864;28;90171;-68
2022/06/09 04:16:20;;;;;;;5.10;3.30;;;;;;;;;;4940257;28;88515;-68
2022/06/09 04:18:49;;;;;;;4.33;2.43;;;;;;;;;;4940390;28;88729;-68
2022/06/09 04:21:19;;;;;;;7.10;3.20;;;;;;;;;;4940089;28;92484;-67
2022/06/09 04:23:47;;;;;;;7.40;3.57;;;;;;;;;;4940778;28;89831;-77
2022/06/09 04:26:17;;;;;;;6.00;3.17;;;;;;;;;;4940875;28;88445;-77
2022/06/09 04:28:45;;;;;;;6.80;3.20;;;;;;;;;;4942343;28;88608;-78
2022/06/09 04:31:14;;;;;;;7.23;3.60;;;;;;;;;;4943770;28;91183;-78
2022/06/09 04:33:42;;;;;;;6.83;2.80;;;;;;;;;;4943340;28;89309;-77
2022/06/09 04:36:12;;;;;;;4.33;2.70;;;;;;;;;;4935615;28;90260;-77
2022/06/09 04:38:42;;;;;;;4.87;3.37;;;;;;;;;;4944736;28;88540;-77
2022/06/09 04:41:11;;;;;;;6.00;3.40;;;;;;;;;;4943252;28;89897;-68
2022/06/09 04:43:40;;;;;;;6.73;3.23;;;;;;;;;;4943469;28;91526;-77
2022/06/09 04:46:09;;;;;;;4.23;1.90;;;;;;;;;;4943880;28;88534;-69
2022/06/09 04:48:37;;;;;;;5.33;2.83;;;;;;;;;;4942578;28;88653;-68
2022/06/09 04:51:06;;;;;;;5.23;2.63;;;;;;;;;;4942914;28;90112;-68
2022/06/09 04:53:34;;;;;;;5.63;2.73;;;;;;;;;;4942407;28;88877;-68
2022/06/09 04:56:04;;;;;;;3.57;2.47;;;;;;;;;;4941876;28;88549;-68
2022/06/09 04:58:32;;;;;;;5.37;1.90;;;;;;;;;;4942316;28;89088;-68
2022/06/09 05:01:00;;;;;;;3.63;2.00;;;;;;;;;;4942132;28;92294;-70
2022/06/09 05:03:30;;;;;;;2.47;1.83;;;;;;;;;;4943358;28;90261;-69
2022/06/09 05:05:59;;;;;;;3.40;1.80;;;;;;;;;;4941768;28;88782;-69
2022/06/09 05:08:28;;;;;;;3.70;1.97;;;;;;;;;;4942661;28;88638;-69
2022/06/09 05:10:56;;;;;;;2.53;1.67;;;;;;;;;;4942361;28;91643;-69
2022/06/09 05:13:29;;;;;;;2.63;2.07;;;;;;;;;;4942406;28;89075;-69
2022/06/09 05:15:57;;;;;;;2.60;1.80;;;;;;;;;;4942562;28;89014;-69
2022/06/09 05:18:27;;;;;;;3.47;1.93;;;;;;;;;;4942043;28;89338;-69
2022/06/09 05:20:56;;;;;;;3.93;2.07;;;;;;;;;;4942293;28;89271;-69
2022/06/09 05:23:25;;;;;;;2.60;2.00;;;;;;;;;;4942505;28;88827;-69
2022/06/09 05:25:55;;;;;;;2.13;1.40;;;;;;;;;;4941468;28;88720;-65
2022/06/09 05:28:24;;;;;;;3.80;2.00;;;;;;;;;;4942410;28;88559;-64
2022/06/09 05:30:54;;;;;;;2.40;1.80;;;;;;;;;;4941870;28;88617;-65
2022/06/09 05:33:22;;;;;;;1.97;1.20;;;;;;;;;;4944471;28;89257;-64
2022/06/09 05:35:51;;;;;;;2.57;1.37;;;;;;;;;;4942794;28;89497;-65
2022/06/09 05:46:43;;;;;;;1.93;1.30;;;;;;;;;;4941528;28;88828;-68
2022/06/09 05:49:15;;;;;;;2.00;1.37;;;;;;;;;;4942051;28;88427;-68
2022/06/09 05:51:43;;;;;;;2.67;1.40;;;;;;;;;;4941343;28;89598;-67
2022/06/09 05:54:12;;;;;;;4.20;1.47;;;;;;;;;;4941773;28;89401;-68
2022/06/09 05:56:41;;;;;;;4.20;1.77;;;;;;;;;;4940665;28;90004;-69
2022/06/09 05:59:09;;;;;;;2.43;1.17;;;;;;;;;;4940943;28;88711;-67
2022/06/09 06:01:37;;;;;;;2.77;1.60;;;;;;;;;;4942272;28;93787;-68
2022/06/09 06:04:08;;;;;;;1.50;1.10;;;;;;;;;;4942324;28;92653;-68
2022/06/09 06:06:36;;;;;;;2.17;1.40;;;;;;;;;;4942507;28;88421;-68
2022/06/09 06:09:11;;;;;;;2.80;1.70;;;;;;;;;;4941819;28;88629;-67
2022/06/09 06:11:39;;;;;;;1.43;1.03;;;;;;;;;;4940777;28;89755;-67
2022/06/09 06:14:08;;;;;;;2.37;1.43;;;;;;;;;;4940310;28;88623;-68
2022/06/09 06:16:37;;;;;;;1.73;1.17;;;;;;;;;;4940809;28;90313;-69
2022/06/09 06:19:08;;;;;;;4.60;1.70;;;;;;;;;;4941717;28;89211;-68
2022/06/09 06:21:36;;;;;;;1.47;1.03;;;;;;;;;;4941931;28;90648;-68
2022/06/09 06:24:05;;;;;;;1.40;1.13;;;;;;;;;;4941893;28;90684;-68
2022/06/09 06:26:33;;;;;;;2.10;1.43;;;;;;;;;;4941757;28;88348;-68
2022/06/09 06:29:02;;;;;;;1.80;1.53;;;;;;;;;;4941842;28;88399;-69
2022/06/09 06:31:30;;;;;;;2.83;1.53;;;;;;;;;;4940370;28;90050;-68
2022/06/09 06:33:59;;;;;;;1.83;1.33;;;;;;;;;;4940814;28;91752;-66
2022/06/09 06:36:29;;;;;;;3.27;1.60;;;;;;;;;;4941730;28;90729;-66
2022/06/09 06:38:58;;;;;;;1.67;1.10;;;;;;;;;;4941324;28;89579;-66
2022/06/09 06:41:26;;;;;;;2.67;1.30;;;;;;;;;;4941463;28;91246;-66
2022/06/09 06:43:55;;;;;;;1.67;1.13;;;;;;;;;;4940964;28;89307;-65
2022/06/09 06:46:27;;;;;;;2.00;1.20;;;25.00;50.70;;;;;;4941982;28;88373;-68
2022/06/09 06:48:56;;;;;;;1.37;1.17;;;25.00;51.30;;;;;;4940907;28;90005;-68
2022/06/09 06:51:24;;;;;;;2.30;1.17;;;25.00;51.40;;;;;;4940311;28;89436;-68
2022/06/09 06:53:53;;;;;;;1.13;0.90;;;25.00;51.50;;;;;;4941406;28;91554;-68
2022/06/09 06:56:21;;;;;;;3.07;0.80;;;25.00;51.60;;;;;;4939715;28;88783;-68
2022/06/09 06:58:49;;;;;;;0.73;0.73;;;25.00;51.60;;;;;;4941933;28;88546;-68
2022/06/09 07:01:17;;;;;;;1.30;1.20;;;25.00;51.60;;;;;;4941292;28;91081;-65
2022/06/09 07:03:45;;;;;;;7.47;1.53;;;25.00;51.70;;;;;;4941148;28;90339;-65
2022/06/09 07:06:13;;;;;;;2.33;1.00;;;24.90;51.70;;;;;;4941314;28;88505;-65
2022/06/09 07:08:42;;;;;;;1.93;1.10;;;24.90;51.70;;;;;;4940486;28;88546;-65
2022/06/09 07:11:11;;;;;;;1.77;0.90;;;24.90;51.70;;;;;;4940988;28;89382;-65
2022/06/09 07:13:39;;;;;;;1.30;0.87;;;25.00;51.70;;;;;;4940867;28;90093;-65
2022/06/09 07:16:08;;;;;;;3.80;0.90;;;25.00;51.70;;;;;;4941043;28;88582;-65
2022/06/09 07:18:56;;;;;;;0.80;0.80;;;25.00;51.70;;;;;;4939987;28;88454;-65
2022/06/09 07:21:24;;;;;;;1.80;0.80;;;25.00;51.60;;;;;;4939936;28;92013;-66
2022/06/09 07:23:52;;;;;;;1.20;0.70;;;25.00;51.70;;;;;;4940975;28;89564;-65
2022/06/09 07:26:22;;;;;;;2.53;1.17;;;24.90;51.60;;;;;;4938716;28;88436;-65
2022/06/09 07:28:50;;;;;;;1.67;0.73;;;24.90;51.70;;;;;;4940525;28;88691;-65
2022/06/09 07:31:18;;;;;;;1.03;0.60;;;24.90;51.70;;;;;;4940844;28;92522;-67
2022/06/09 07:33:46;;;;;;;1.90;0.80;;;24.90;51.70;;;;;;4926584;28;89460;-66
2022/06/09 07:36:15;;;;;;;2.57;0.80;;;24.90;51.70;;;;;;4921726;28;88419;-65
2022/06/09 07:38:44;;;;;;;0.67;0.67;;;24.90;51.80;;;;;;4935832;28;88388;-66
2022/06/09 07:41:12;;;;;;;2.67;0.60;;;24.90;51.90;;;;;;4940410;28;90663;-66
2022/06/09 07:43:57;;;;;;;4.93;1.23;;;24.90;51.90;;;;;;4937680;28;90406;-66
2022/06/09 07:46:25;;;;;;;0.73;0.60;;;24.90;52.00;;;;;;4931376;28;88859;-67
2022/06/09 07:48:54;;;;;;;0.70;0.70;;;24.90;52.00;;;;;;4940035;28;88585;-67
2022/06/09 07:51:22;;;;;;;0.50;0.50;;;24.90;52.00;;;;;;4940161;28;90440;-67
2022/06/09 07:53:50;;;;;;;3.80;1.20;;;24.90;52.00;;;;;;4934245;28;89573;-67
2022/06/09 07:56:18;;;;;;;1.83;0.40;;;25.00;52.10;;;;;;4939529;28;89060;-66
2022/06/09 07:58:46;;;;;;;1.30;0.70;;;24.90;52.00;;;;;;4939476;28;89035;-66
2022/06/09 08:01:18;;;;;;;1.33;0.73;;;24.90;52.00;;;;;;4939230;28;92954;-66
2022/06/09 08:03:46;;;;;;;3.93;0.73;;;24.90;52.00;;;;;;4940770;28;90029;-66
2022/06/09 08:06:15;;;;;;;1.50;0.83;;;24.90;51.90;;;;;;4943541;28;91618;-66
2022/06/09 08:08:52;;;;;;;2.37;0.70;;;24.90;51.90;;;;;;4943126;28;88668;-66
2022/06/09 08:11:20;;;;;;;0.93;0.60;;;24.90;51.80;;;;;;4942975;28;90187;-66
2022/06/09 08:13:48;;;;;;;0.93;0.60;;;24.90;51.80;;;;;;4943531;28;89240;-66
2022/06/09 08:16:17;;;;;;;3.77;0.93;;;24.90;51.80;;;;;;4943876;28;88539;-67
2022/06/09 08:18:45;;;;;;;0.40;0.40;;;24.90;51.70;;;;;;4942791;28;88398;-66
2022/06/09 08:21:13;;;;;;;1.43;0.67;;;24.90;51.70;;;;;;4943726;28;89437;-66
2022/06/09 08:23:58;;;;;;;2.43;0.97;;;24.90;51.60;;;;;;4943683;28;88596;-66
2022/06/09 08:26:27;;;;;;;0.70;0.40;;;24.90;51.60;;;;;;4943179;28;89508;-66
2022/06/09 08:28:55;;;;;;;3.20;1.07;;;24.90;51.50;;;;;;4943539;28;88565;-67
2022/06/09 08:31:25;;;;;;;0.60;0.60;;;24.90;51.40;;;;;;4942177;28;89913;-66
2022/06/09 08:33:55;;;;;;;0.83;0.47;;;25.00;51.40;;;;;;4942938;28;90029;-66
2022/06/09 08:36:23;;;;;;;0.53;0.53;;;25.00;51.30;;;;;;4943585;28;88958;-66
2022/06/09 08:38:51;;;;;;;2.67;0.80;;;25.00;51.30;;;;;;4943854;28;88540;-66
2022/06/09 08:41:29;;;;;;;0.67;0.50;;;25.00;51.20;;;;;;4943435;28;89044;-66
2022/06/09 08:44:00;;;;;;;0.70;0.60;;;24.90;51.10;;;;;;4942097;28;90246;-66
2022/06/09 08:46:35;;;;;;;0.90;0.70;;;24.90;51.10;;;;;;4942944;28;89752;-67
2022/06/09 08:49:04;;;;;;;0.67;0.57;;;24.90;51.00;;;;;;4942298;28;88661;-66
2022/06/09 08:51:36;;;;;;;0.77;0.70;;;24.90;50.90;;;;;;4942483;28;90647;-66
2022/06/09 08:54:07;;;;;;;0.67;0.50;;;24.90;50.90;;;;;;4942403;28;89600;-66
2022/06/09 08:56:35;;;;;;;2.80;0.97;;;24.90;50.80;;;;;;4942741;28;88911;-66
2022/06/09 08:59:06;;;;;;;1.13;0.80;;;24.90;50.70;;;;;;4937900;28;89607;-66
2022/06/09 09:01:38;;;;;;;0.83;0.70;;;24.90;50.70;;;;;;4941565;28;90849;-66
2022/06/09 09:04:12;;;;;;;5.20;1.30;;;;;;;;;;4942223;28;91013;-66
2022/06/09 09:06:43;;;;;;;0.50;0.50;;;24.90;50.00;;;;;;4943320;28;92047;-66
2022/06/09 09:09:13;;;;;;;3.23;0.60;;;24.90;50.60;;;;;;4942981;28;88832;-66
2022/06/09 09:11:47;;;;;;;3.00;0.73;;;24.90;50.50;;;;;;4942076;28;90136;-67
2022/06/09 09:14:17;;;;;;;4.37;1.10;;;24.90;50.50;;;;;;4941809;28;90533;-67
2022/06/09 09:16:50;;;;;;;1.00;0.60;;;24.90;50.50;;;;;;4941682;28;88371;-67
2022/06/09 09:19:23;;;;;;;4.27;0.60;;;24.90;50.40;;;;;;4942036;28;88378;-74
2022/06/09 09:22:02;;;;;;;0.60;0.43;;;24.90;50.50;;;;;;4942425;28;90673;-73
2022/06/09 09:24:34;;;;;;;0.83;0.53;;;24.90;50.50;;;;;;4927422;28;89169;-74
2022/06/09 09:27:12;;;;;;;0.40;0.40;;;24.90;50.30;;;;;;4942392;28;92198;-74
2022/06/09 09:29:44;;;;;;;2.67;0.60;;;24.90;50.30;;;;;;4940842;28;88662;-72
2022/06/09 09:32:15;;;;;;;1.03;0.40;;;24.90;50.30;;;;;;4928820;28;92963;-73
2022/06/09 09:34:44;;;;;;;2.57;0.80;;;25.00;50.30;;;;;;4942110;28;91137;-73
2022/06/09 09:37:20;;;;;;;2.10;0.63;;;25.00;51.00;;;;;;4941408;28;88639;-68
2022/06/09 09:39:50;;;;;;;3.17;0.60;;;25.00;50.40;;;;;;4942818;28;88419;-76
2022/06/09 09:42:19;;;;;;;1.00;0.60;;;25.00;50.40;;;;;;4941793;28;89634;-69
2022/06/09 09:45:07;;;;;;;0.90;0.47;;;25.10;50.30;;;;;;4942300;28;90182;-69
2022/06/09 09:47:43;;;;;;;2.03;1.23;;;25.00;50.30;;;;;;4942482;28;92044;-69
2022/06/09 09:50:19;;;;;;;0.97;0.73;;;25.00;49.60;;;;;;4941311;28;88557;-70
2022/06/09 09:52:48;;;;;;;1.37;0.50;;;25.00;50.20;;;;;;4942454;28;91117;-69
2022/06/09 09:55:26;;;;;;;1.50;0.57;;;25.00;50.10;;;;;;4960679;28;90514;-69
2022/06/09 09:58:19;;;;;;;1.13;0.80;;;25.00;50.10;;;;;;4945600;28;88807;-69
2022/06/09 10:00:50;;;;;;;3.93;0.77;;;25.00;50.00;;;;;;4942145;28;88615;-70
2022/06/09 10:09:52;;;;;;;3.10;0.60;;;25.00;49.80;;;;;;4940844;28;88623;-69
2022/06/09 10:12:26;;;;;;;1.33;0.97;;;25.00;49.80;;;;;;4941953;28;88529;-70
2022/06/09 10:15:15;;;;;;;0.50;0.50;;;25.10;49.80;;;;;;4942002;28;88981;-70
2022/06/09 10:17:44;;;;;;;4.63;0.80;;;25.10;49.80;;;;;;4941005;28;89381;-70
2022/06/09 10:20:35;;;;;;;2.73;0.77;;;25.20;49.70;;;;;;4941192;28;88528;-69
2022/06/09 10:23:43;;;;;;;2.00;0.80;;;25.20;50.40;;;;;;4941655;28;88490;-70
2022/06/09 10:26:13;;;;;;;0.67;0.63;;;25.20;49.70;;;;;;4881881;28;90140;-69
2022/06/09 10:28:45;;;;;;;1.67;0.90;;;25.20;49.60;;;;;;4932873;28;93390;-70
2022/06/09 10:31:19;;;;;;;0.70;0.40;;;25.20;49.60;;;;;;4941353;28;92277;-70
2022/06/09 10:33:50;;;;;;;1.67;1.00;;;25.20;49.60;;;;;;4941852;28;88687;-69
2022/06/09 10:36:22;;;;;;;1.53;1.00;;;25.30;49.60;;;;;;4941572;28;90630;-70
2022/06/09 10:38:52;;;;;;;1.50;0.70;;;25.30;50.30;;;;;;4941841;28;93130;-69
2022/06/09 10:41:22;;;;;;;0.67;0.50;;;25.30;49.60;;;;;;4941240;28;88356;-70
2022/06/09 10:43:56;;;;;;;0.90;0.73;;;25.30;49.60;;;;;;4940987;28;88782;-69
2022/06/09 10:46:30;;;;;;;1.03;0.70;;;25.30;49.50;;;;;;4924112;28;90532;-70
2022/06/09 10:57:27;;;;;;;1.67;0.80;;;25.30;49.30;;;;;;4901110;28;90708;-70
2022/06/09 10:59:57;;;;;;;0.93;0.77;;;25.40;49.40;;;;;;4940731;28;93307;-69
2022/06/09 11:02:27;;;;;;;1.80;0.80;;;25.30;50.00;;;;;;4940814;28;88574;-69
2022/06/09 11:04:55;;;;;;;1.10;0.60;;;25.40;49.30;;;;;;4941338;28;88592;-70
2022/06/09 11:07:41;;;;;;;1.07;0.70;;;25.40;49.20;;;;;;4941144;28;90063;-69
2022/06/09 11:10:24;;;;;;;4.53;0.80;;;25.40;49.20;;;;;;4941144;28;89513;-70
2022/06/09 11:12:59;;;;;;;4.53;0.70;;;25.40;49.20;;;;;;4956263;28;88882;-69
2022/06/09 11:15:30;;;;;;;2.43;0.90;;;25.40;49.20;;;;;;4948496;28;88470;-69
2022/06/09 11:18:06;;;;;;;2.83;0.70;;;25.50;49.20;;;;;;4940864;28;90648;-69
2022/06/09 11:20:42;;;;;;;0.70;0.70;;;25.50;49.10;;;;;;4940994;28;90145;-69
2022/06/09 11:23:15;;;;;;;1.13;0.70;;;25.50;49.10;;;;;;4941054;28;90262;-70
2022/06/09 11:25:49;;;;;;;3.53;1.00;;;25.50;49.10;;;;;;4940048;28;88676;-70
2022/06/09 11:28:24;;;;;;;3.50;0.77;;;25.50;49.10;;;;;;4940471;28;88603;-70
2022/06/09 11:30:59;;;;;;;2.33;0.93;;;;;;;;;;4940758;28;88496;-70
2022/06/09 11:33:32;;;;;;;0.73;0.73;;;;;;;;;;4940349;28;88399;-70
2022/06/09 11:36:01;;;;;;;2.30;1.00;;;;;;;;;;4941041;28;88468;-70
2022/06/09 11:38:38;;;;;;;2.17;0.80;;;;;;;;;;4940841;28;92979;-69
2022/06/09 11:41:09;;;;;;;3.13;1.03;;;;;;;;;;4939818;28;90141;-70
2022/06/09 11:43:59;;;;;;;2.23;0.67;;;;;;;;;;4940256;28;88552;-70
2022/06/09 11:46:30;;;;;;;3.37;1.03;;;;;;;;;;4941016;28;88364;-69
2022/06/09 11:48:59;;;;;;;0.83;0.60;;;;;;;;;;4940408;28;91081;-69
2022/06/09 11:51:28;;;;;;;2.57;0.80;;;;;;;;;;4943880;28;89436;-69
2022/06/09 11:53:58;;;;;;;0.87;0.83;;;;;;;;;;4944707;28;88320;-70
2022/06/09 11:56:36;;;;;;;0.60;0.60;;;;;;;;;;4940921;28;88404;-70
2022/06/09 11:59:06;;;;;;;2.00;0.60;;;;;;;;;;4940210;28;91101;-69
2022/06/09 12:01:43;;;;;;;3.80;0.70;;;;;;;;;;4940888;28;91928;-70
2022/06/09 12:04:21;;;;;;;1.03;0.83;;;;;;;;;;4941101;28;88801;-70
2022/06/09 12:06:58;;;;;;;1.00;0.50;;;;;;;;;;4940278;28;88713;-70
2022/06/09 12:09:33;;;;;;;3.80;0.53;;;;;;;;;;4940131;28;90619;-70
2022/06/09 12:12:02;;;;;;;1.07;0.53;;;;;;;;;;4940338;28;92733;-70
2022/06/09 12:14:32;;;;;;;1.10;0.60;;;;;;;;;;4939911;28;89013;-77
2022/06/09 12:17:05;;;;;;;1.40;0.73;;;;;;;;;;4940132;28;88788;-77
2022/06/09 12:19:35;;;;;;;5.93;1.20;;;;;;;;;;4940292;28;91974;-77
2022/06/09 12:22:27;;;;;;;3.00;0.87;;;;;;;;;;4939995;28;93235;-77
2022/06/09 12:25:06;;;;;;;2.20;0.90;;;;;;;;;;4930617;28;88517;-77
2022/06/09 12:27:52;;;;;;;1.40;0.80;;;;;;;;;;4940480;28;88484;-77
2022/06/09 12:30:22;;;;;;;2.43;0.97;;;;;;;;;;4940012;28;89439;-77
2022/06/09 12:32:50;;;;;;;2.50;0.83;;;;;;;;;;4940083;28;91355;-77
2022/06/09 12:35:21;;;;;;;0.73;0.73;;;;;;;;;;4941035;28;88300;-77
2022/06/09 12:37:51;;;;;;;4.03;0.93;;;;;;;;;;4940205;28;88461;-77
2022/06/09 12:40:21;;;;;;;1.63;1.00;;;;;;;;;;4939522;28;90578;-77
2022/06/09 12:42:50;;;;;;;1.50;0.80;;;;;;;;;;4940111;28;89137;-77
2022/06/09 12:45:21;;;;;;;1.53;0.73;;;;;;;;;;4940645;28;88980;-77
2022/06/09 12:47:52;;;;;;;1.53;0.80;;;;;;;;;;4940361;28;88606;-77
2022/06/09 12:50:22;;;;;;;1.20;0.70;;;;;;;;;;4943083;28;93651;-77
2022/06/09 12:52:51;;;;;;;0.60;0.50;;;;;;;;;;4941579;28;93375;-77
2022/06/09 12:55:21;;;;;;;5.73;1.23;;;;;;;;;;4943451;28;88774;-77
2022/06/09 12:57:50;;;;;;;0.60;0.50;;;;;;;;;;4942896;28;88622;-77
2022/06/09 13:00:21;;;;;;;0.53;0.50;;;;;;;;;;4942557;28;89529;-77
2022/06/09 13:02:49;;;;;;;2.40;1.30;;;;;;;;;;4942245;28;89422;-77
2022/06/09 13:05:19;;;;;;;1.00;0.50;;;;;;;;;;4943378;28;89481;-77
2022/06/09 13:07:49;;;;;;;1.13;0.83;;;;;;;;;;4943497;28;88293;-77
2022/06/09 13:10:19;;;;;;;0.70;0.70;;;;;;;;;;4941392;28;89758;-77
2022/06/09 13:12:52;;;;;;;3.90;0.67;;;;;;;;;;4943035;28;88512;-77
2022/06/09 13:15:25;;;;;;;1.60;0.60;;;;;;;;;;4943597;28;88838;-77
2022/06/09 13:17:57;;;;;;;0.80;0.77;;;;;;;;;;4943053;28;88599;-77
2022/06/09 13:20:26;;;;;;;2.37;0.60;;;;;;;;;;4943417;28;92585;-77
2022/06/09 13:22:54;;;;;;;2.30;0.53;;;;;;;;;;4942218;28;89224;-77
2022/06/09 13:25:23;;;;;;;1.20;0.67;;;;;;;;;;4943151;28;88793;-77
2022/06/09 13:27:53;;;;;;;3.00;1.27;;;;;;;;;;4943508;28;88386;-77
2022/06/09 13:30:32;;;;;;;2.03;0.80;;;;;;;;;;4942123;28;89474;-78
2022/06/09 13:33:01;;;;;;;1.13;0.73;;;;;;;;;;4942931;28;92975;-77
2022/06/09 13:35:49;;;;;;;0.77;0.60;;;;;;;;;;4942582;28;89627;-77
2022/06/09 13:38:18;;;;;;;1.90;0.90;;;;;;;;;;4942635;28;88711;-76
2022/06/09 13:40:49;;;;;;;1.00;0.70;;;;;;;;;;4942686;28;90230;-77
2022/06/09 13:43:20;;;;;;;0.97;0.70;;;;;;;;;;4942413;28;89685;-77
2022/06/09 13:45:53;;;;;;;1.73;0.60;;;;;;;;;;4942828;28;88936;-76
2022/06/09 13:48:21;;;;;;;2.40;0.90;;;;;;;;;;4942592;28;88658;-77
2022/06/09 13:50:50;;;;;;;1.17;0.53;;;;;;;;;;4942185;28;90753;-77
2022/06/09 13:53:29;;;;;;;0.60;0.60;;;;;;;;;;4942344;28;88895;-76
2022/06/09 13:55:57;;;;;;;0.53;0.53;;;;;;;;;;4941990;28;89869;-76
2022/06/09 13:58:28;;;;;;;0.67;0.67;;;;;;;;;;4943096;28;88505;-77
2022/06/09 14:00:57;;;;;;;1.83;0.70;;;;;;;;;;4941825;28;92423;-76
2022/06/09 14:03:26;;;;;;;0.90;0.63;;;;;;;;;;4942868;28;89611;-77
2022/06/09 14:05:59;;;;;;;5.10;0.90;;;;;;;;;;4942179;28;88762;-77
2022/06/09 14:08:30;;;;;;;0.63;0.60;;;;;;;;;;4942150;28;88647;-76
2022/06/09 14:10:58;;;;;;;0.53;0.43;;;;;;;;;;4942241;28;91975;-77
2022/06/09 14:13:31;;;;;;;3.53;0.87;;;;;;;;;;4942689;28;89428;-76
2022/06/09 14:16:02;;;;;;;1.03;0.57;;;;;;;;;;4941269;28;88325;-76
2022/06/09 14:18:32;;;;;;;0.90;0.47;;;;;;;;;;4942700;28;88018;-77
2022/06/09 14:21:02;;;;;;;3.90;0.70;;;;;;;;;;4941487;28;90939;-77
2022/06/09 14:23:38;;;;;;;2.90;0.67;;;;;;;;;;4941173;28;90296;-77
2022/06/09 14:26:07;;;;;;;3.50;0.60;;;;;;;;;;4942337;28;88651;-77
2022/06/09 14:28:37;;;;;;;1.00;0.40;;;;;;;;;;4941383;28;88677;-76
2022/06/09 14:31:05;;;;;;;3.80;0.80;;;;;;;;;;4941541;28;92335;-77
2022/06/09 14:33:34;;;;;;;1.50;0.80;;;;;;;;;;4942115;28;88386;-77
2022/06/09 14:36:02;;;;;;;0.57;0.50;;;;;;;;;;4944376;28;88791;-76
2022/06/09 14:38:30;;;;;;;0.70;0.50;;;;;;;;;;4961734;28;88498;-76
2022/06/09 14:41:06;;;;;;;0.87;0.80;;;;;;;;;;4961458;28;91645;-77
2022/06/09 14:43:34;;;;;;;1.27;0.60;;;;;;;;;;4961501;28;92418;-78
2022/06/09 14:46:04;;;;;;;1.70;0.60;;;;;;;;;;4961740;28;92763;-77
2022/06/09 14:48:33;;;;;;;0.87;0.83;;;;;;;;;;4961864;28;88428;-77